Аэропорт: им. Гейдара Алиева. Баку

ICAO: UBBB

METAR:
2019-09-16 01:30:00
UBBB 160130Z 25003KT 9999 FEW060CB BKN100 20/17 Q1019 R88/CLRD// NOSIG
METAR:
2019-09-15 23:04:00
TAF UBBB 152304Z 1600/1624 19006KT 9999 FEW050CB BKN100 TX26/1610Z TN20/1602Z TEMPO 1600/1606 VRB04KT -TSRA SCT012 SCT040CB BKN100 BECMG 1606/1608 17014KT